Time;durP1;ratioP1;P1;durP2;ratioP2;P2;SDS_P1;SDS_P2;PMS_P1;PMS_P2;Temp;Humidity;BMP_temperature;BMP_pressure;BME280_temperature;BME280_humidity;BME280_pressure;Samples;Min_cycle;Max_cycle;Signal;HPM_P1;HPM_P2
2022/08/03 00:01:19;;;;;;;17.85;6.78;;;;;;;17.31;100.00;101413.34;5095475;28;20028;-46
2022/08/03 00:03:44;;;;;;;12.77;6.07;;;;;;;17.26;100.00;101415.03;5096102;28;20031;-45
2022/08/03 00:06:09;;;;;;;16.40;5.95;;;;;;;17.28;100.00;101411.59;5096155;28;20035;-45
2022/08/03 00:08:35;;;;;;;16.48;6.43;;;;;;;17.31;100.00;101413.34;5095298;28;20089;-46
2022/08/03 00:11:00;;;;;;;12.65;6.30;;;;;;;17.31;100.00;101410.75;5096202;28;20028;-46
2022/08/03 00:13:26;;;;;;;13.88;6.15;;;;;;;17.27;100.00;101407.25;5095092;28;20031;-46
2022/08/03 00:15:51;;;;;;;15.27;5.65;;;;;;;17.14;100.00;101409.72;5095919;28;20479;-47
2022/08/03 00:18:17;;;;;;;13.73;5.97;;;;;;;17.09;100.00;101407.94;5095843;28;20031;-46
2022/08/03 00:20:42;;;;;;;12.77;6.28;;;;;;;16.99;100.00;101411.28;5095197;28;20534;-45
2022/08/03 00:23:07;;;;;;;12.90;6.00;;;;;;;16.92;100.00;101409.44;5095940;28;20019;-45
2022/08/03 00:25:34;;;;;;;13.73;6.30;;;;;;;16.84;100.00;101414.53;5095638;28;20027;-47
2022/08/03 00:28:00;;;;;;;17.77;6.45;;;;;;;16.75;100.00;101410.06;5095021;28;20031;-45
2022/08/03 00:30:25;;;;;;;15.68;6.35;;;;;;;16.75;100.00;101406.59;5095548;28;20024;-49
2022/08/03 00:32:50;;;;;;;17.13;6.75;;;;;;;16.72;100.00;101407.44;5095722;28;20055;-45
2022/08/03 00:35:16;;;;;;;16.33;6.68;;;;;;;16.73;100.00;101403.97;5094853;28;20049;-45
2022/08/03 00:37:41;;;;;;;15.88;7.43;;;;;;;16.78;100.00;101401.41;5095398;28;20486;-46
2022/08/03 00:40:08;;;;;;;14.82;6.53;;;;;;;16.78;100.00;101404.91;5095595;28;20054;-45
2022/08/03 00:42:33;;;;;;;17.92;8.38;;;;;;;16.94;100.00;101395.59;5094570;28;20109;-47
2022/08/03 00:44:58;;;;;;;16.77;8.70;;;;;;;17.03;100.00;101397.44;5095283;28;20479;-46
2022/08/03 00:47:23;;;;;;;15.55;7.55;;;;;;;16.97;100.00;101399.97;5095303;28;20031;-46
2022/08/03 00:49:49;;;;;;;14.88;7.50;;;;;;;16.89;100.00;101398.97;5094547;28;20032;-45
2022/08/03 00:52:15;;;;;;;14.70;8.48;;;;;;;16.89;100.00;101394.63;5095380;28;20031;-46
2022/08/03 00:54:41;;;;;;;18.25;7.95;;;;;;;16.88;100.00;101389.41;5094293;28;20024;-46
2022/08/03 00:57:06;;;;;;;17.60;8.05;;;;;;;16.89;100.00;101393.75;5094351;28;20047;-47
2022/08/03 00:59:32;;;;;;;17.35;7.70;;;;;;;16.96;100.00;101393.00;5094901;28;20471;-46
2022/08/03 01:01:58;;;;;;;17.42;7.55;;;;;;;16.97;100.00;101386.94;5095328;28;20046;-50
2022/08/03 01:04:23;;;;;;;19.38;8.02;;;;;;;16.94;100.00;101385.19;5094372;28;20099;-46
2022/08/03 01:06:59;;;;;;;17.58;7.70;;;;;;;16.91;100.00;101384.25;5094831;28;20111;-48
2022/08/03 01:09:24;;;;;;;16.15;8.60;;;;;;;16.91;100.00;101381.66;5094826;28;20024;-50
2022/08/03 01:12:02;;;;;;;15.87;7.73;;;;;;;16.89;100.00;101383.34;5094091;28;20032;-50
2022/08/03 01:15:04;;;;;;;16.15;7.03;;;;;;;16.92;100.00;101383.41;5095010;28;20032;-50
2022/08/03 01:17:38;;;;;;;14.77;7.53;;;;;;;16.82;100.00;101384.13;5093986;28;20044;-47
2022/08/03 01:20:08;;;;;;;13.00;7.40;;;;;;;16.78;100.00;101370.19;5094762;28;20020;-50
2022/08/03 01:23:11;;;;;;;14.68;7.78;;;;;;;16.87;100.00;101382.44;5094315;28;20020;-51
2022/08/03 01:25:50;;;;;;;12.02;6.80;;;;;;;16.83;100.00;101373.72;5093771;28;20028;-50
2022/08/03 01:28:56;;;;;;;14.80;7.93;;;;;;;16.83;100.00;101378.06;5094841;28;20055;-50
2022/08/03 01:31:28;;;;;;;19.55;11.52;;;;;;;17.01;100.00;101378.31;5093742;28;20479;-49
2022/08/03 01:34:01;;;;;;;21.80;10.65;;;;;;;17.07;100.00;101386.19;5094502;28;20024;-50
2022/08/03 01:36:34;;;;;;;16.17;9.00;;;;;;;17.05;100.00;101374.00;5094502;28;20047;-50
2022/08/03 01:39:03;;;;;;;15.82;8.38;;;;;;;16.94;100.00;101376.50;5093467;28;20082;-51
2022/08/03 01:41:35;;;;;;;16.15;8.20;;;;;;;16.87;100.00;101375.50;5094456;28;20024;-49
2022/08/03 01:44:04;;;;;;;19.15;8.20;;;;;;;16.79;100.00;101378.00;5094144;28;20055;-48
2022/08/03 01:46:31;;;;;;;20.88;8.18;;;;;;;16.83;100.00;101367.66;5093515;28;20028;-49
2022/08/03 01:48:58;;;;;;;23.25;8.73;;;;;;;16.81;100.00;101369.34;5094149;28;20026;-50
2022/08/03 01:51:24;;;;;;;15.90;8.35;;;;;;;16.84;100.00;101369.41;5094009;28;20028;-49
2022/08/03 01:53:51;;;;;;;22.35;9.55;;;;;;;16.83;100.00;101378.06;5093399;28;20027;-49
2022/08/03 01:56:18;;;;;;;16.42;8.05;;;;;;;16.76;100.00;101372.78;5094247;28;20066;-51
2022/08/03 01:58:45;;;;;;;24.00;8.57;;;;;;;16.79;100.00;101371.94;5093965;28;20028;-50
2022/08/03 02:01:12;;;;;;;20.00;8.35;;;;;;;16.79;100.00;101367.59;5093426;28;20032;-49
2022/08/03 02:03:41;;;;;;;22.73;10.60;;;;;;;16.91;100.00;101366.94;5093812;28;20498;-51
2022/08/03 02:06:09;;;;;;;18.48;8.52;;;;;;;16.90;100.00;101370.38;5092930;28;20066;-50
2022/08/03 02:08:36;;;;;;;15.13;8.02;;;;;;;16.73;100.00;101364.94;5093618;28;20047;-51
2022/08/03 02:11:03;;;;;;;18.03;9.03;;;;;;;16.76;100.00;101359.75;5093970;28;20056;-49
2022/08/03 02:13:31;;;;;;;18.33;7.40;;;;;;;16.69;100.00;101370.06;5093034;28;20020;-51
2022/08/03 02:15:57;;;;;;;19.02;8.90;;;;;;;16.61;100.00;101367.38;5093475;28;20387;-50
2022/08/03 02:18:23;;;;;;;19.23;8.70;;;;;;;16.63;100.00;101366.53;5093684;28;20021;-49
2022/08/03 02:20:49;;;;;;;19.85;8.18;;;;;;;16.56;100.00;101361.22;5092681;28;20036;-47
2022/08/03 02:23:15;;;;;;;14.93;7.80;;;;;;;16.55;100.00;101367.28;5093760;28;20024;-51
2022/08/03 02:25:43;;;;;;;11.43;6.10;;;;;;;16.44;100.00;101365.41;5093547;28;20024;-51
2022/08/03 02:28:17;;;;;;;11.93;6.32;;;;;;;16.42;100.00;101369.75;5092746;28;20107;-50
2022/08/03 02:30:45;;;;;;;15.63;6.90;;;;;;;16.34;100.00;101362.69;5093417;28;20047;-51
2022/08/03 02:33:16;;;;;;;16.90;8.55;;;;;;;16.34;100.00;101360.94;5093263;28;20250;-49
2022/08/03 02:35:43;;;;;;;20.23;8.80;;;;;;;16.32;100.00;101365.25;5092719;28;20028;-51
2022/08/03 02:38:12;;;;;;;19.73;8.88;;;;;;;16.32;100.00;101353.97;5093314;28;20028;-49
2022/08/03 02:40:39;;;;;;;21.08;8.63;;;;;;;16.40;100.00;101352.38;5093274;28;20035;-51
2022/08/03 02:43:09;;;;;;;17.38;8.40;;;;;;;16.32;100.00;101352.25;5092366;28;20044;-48
2022/08/03 02:45:37;;;;;;;18.30;7.75;;;;;;;16.34;100.00;101358.34;5092877;28;20035;-49
2022/08/03 02:48:05;;;;;;;18.60;7.68;;;;;;;16.32;100.00;101348.75;5093004;28;20166;-49
2022/08/03 02:50:33;;;;;;;20.13;8.68;;;;;;;16.40;100.00;101350.63;5092999;28;20024;-45
2022/08/03 02:53:01;;;;;;;17.02;7.72;;;;;;;16.41;100.00;101357.59;5093218;28;20095;-46
2022/08/03 02:55:27;;;;;;;19.38;7.85;;;;;;;16.44;100.00;101348.94;5092332;28;20030;-50
2022/08/03 02:57:54;;;;;;;19.48;8.10;;;;;;;16.42;100.00;101351.53;5092958;28;20024;-52
2022/08/03 03:00:20;;;;;;;20.45;10.93;;;;;;;16.54;100.00;101345.59;5093058;28;20031;-49
2022/08/03 03:02:46;;;;;;;18.10;9.23;;;;;;;16.61;100.00;101351.75;5092279;28;20024;-50
2022/08/03 03:05:13;;;;;;;19.13;8.40;;;;;;;16.57;100.00;101349.97;5093024;28;20050;-50
2022/08/03 03:07:40;;;;;;;23.13;9.80;;;;;;;16.76;100.00;101345.88;5092858;28;20412;-49
2022/08/03 03:10:07;;;;;;;20.55;10.48;;;;;;;16.83;100.00;101352.91;5092335;28;20027;-50
2022/08/03 03:12:35;;;;;;;26.98;10.68;;;;;;;16.94;100.00;101348.72;5092791;28;20024;-49
2022/08/03 03:15:01;;;;;;;21.40;9.45;;;;;;;16.99;100.00;101347.91;5092767;28;20031;-51
2022/08/03 03:17:26;;;;;;;22.77;9.73;;;;;;;17.10;100.00;101352.34;5092458;28;20426;-49
2022/08/03 03:19:53;;;;;;;28.75;9.77;;;;;;;17.09;100.00;101361.06;5096827;28;20046;-49
2022/08/03 03:22:19;;;;;;;17.85;8.93;;;;;;;17.02;100.00;101348.81;5097297;28;20053;-51
2022/08/03 03:24:46;;;;;;;27.42;9.93;;;;;;;17.14;100.00;101348.06;5096040;28;20535;-50
2022/08/03 03:27:13;;;;;;;23.55;9.48;;;;;;;17.17;100.00;101347.22;5096798;28;20032;-50
2022/08/03 03:29:39;;;;;;;21.00;10.13;;;;;;;17.18;100.00;101348.97;5096678;28;20398;-51
2022/08/03 03:32:06;;;;;;;26.80;9.63;;;;;;;17.16;100.00;101346.34;5096255;28;20036;-50
2022/08/03 03:34:32;;;;;;;19.45;9.15;;;;;;;17.12;100.00;101344.59;5096763;28;20028;-50
2022/08/03 03:36:57;;;;;;;19.75;9.50;;;;;;;17.14;100.00;101348.06;5096803;28;20103;-48
2022/08/03 03:39:23;;;;;;;22.60;9.45;;;;;;;17.21;100.00;101349.00;5095871;28;20107;-50
2022/08/03 03:41:48;;;;;;;20.00;9.88;;;;;;;17.21;100.00;101349.88;5096694;28;20024;-48
2022/08/03 03:44:14;;;;;;;24.30;9.15;;;;;;;17.25;100.00;101356.00;5096480;28;20075;-51
2022/08/03 03:46:40;;;;;;;22.83;9.55;;;;;;;17.23;100.00;101347.28;5095780;28;20028;-51
2022/08/03 03:49:08;;;;;;;27.38;10.38;;;;;;;17.18;100.00;101342.03;5096543;28;20024;-49
2022/08/03 03:51:33;;;;;;;18.63;9.00;;;;;;;17.28;100.00;101346.47;5095644;28;20028;-47
2022/08/03 03:54:01;;;;;;;24.45;8.80;;;;;;;17.28;100.00;101343.84;5096313;28;20024;-51
2022/08/03 03:56:26;;;;;;;;;;;;;;;17.25;100.00;101341.25;5096558;28;20032;-46
2022/08/03 03:58:52;;;;;;;22.42;8.57;;;;;;;17.12;100.00;101344.59;5095324;28;19957;-46
2022/08/03 04:01:18;;;;;;;21.00;9.05;;;;;;;17.14;100.00;101337.63;5096375;28;20064;-47
2022/08/03 04:03:43;;;;;;;22.77;8.57;;;;;;;17.16;100.00;101343.75;5095950;28;20389;-50
2022/08/03 04:11:40;;;;;;;18.52;8.45;;;;;;;17.16;100.00;101343.75;5096001;28;20031;-45
2022/08/03 04:14:11;;;;;;;22.80;8.65;;;;;;;17.07;100.00;101339.31;5095267;28;20016;-51
2022/08/03 04:16:47;;;;;;;18.85;8.68;;;;;;;17.13;100.00;101350.66;5095971;28;20089;-50
2022/08/03 04:19:18;;;;;;;22.77;9.20;;;;;;;17.08;100.00;101343.66;5095769;28;20028;-51
2022/08/03 04:21:49;;;;;;;23.17;8.50;;;;;;;17.05;100.00;101342.75;5095017;28;20023;-51
2022/08/03 04:24:15;;;;;;;23.10;9.20;;;;;;;17.07;100.00;101352.34;5095780;28;20451;-49
2022/08/03 04:26:44;;;;;;;20.23;8.85;;;;;;;17.08;100.00;101342.78;5095178;28;20039;-51
2022/08/03 04:29:11;;;;;;;25.25;9.18;;;;;;;17.07;100.00;101348.88;5094725;28;20020;-49
2022/08/03 04:31:38;;;;;;;24.00;8.20;;;;;;;17.10;100.00;101351.50;5095415;28;20024;-50
2022/08/03 04:34:04;;;;;;;20.95;8.15;;;;;;;17.14;100.00;101352.41;5094833;28;20024;-47
2022/08/03 04:36:32;;;;;;;19.70;8.65;;;;;;;17.14;100.00;101355.00;5095761;28;20337;-51
2022/08/03 04:39:25;;;;;;;22.30;8.68;;;;;;;17.15;100.00;101352.41;5095545;28;20039;-51
2022/08/03 04:41:54;;;;;;;24.73;8.68;;;;;;;17.16;100.00;101350.69;5094768;28;20024;-52
2022/08/03 04:44:22;;;;;;;21.45;8.30;;;;;;;17.17;100.00;101348.13;5095327;28;20059;-49
2022/08/03 04:46:48;;;;;;;19.25;8.23;;;;;;;17.22;100.00;101355.94;5095482;28;20031;-51
2022/08/03 04:49:14;;;;;;;17.00;7.90;;;;;;;17.22;100.00;101353.34;5094891;28;20072;-46
2022/08/03 04:51:39;;;;;;;17.40;8.07;;;;;;;17.24;100.00;101355.13;5095333;28;20114;-46
2022/08/03 04:54:06;;;;;;;21.20;7.90;;;;;;;17.26;100.00;101358.63;5095211;28;20056;-46
2022/08/03 04:56:33;;;;;;;21.73;7.87;;;;;;;17.30;100.00;101369.06;5094394;28;20628;-46
2022/08/03 04:58:58;;;;;;;16.20;6.75;;;;;;;17.30;100.00;101364.75;5094970;28;20024;-46
2022/08/03 05:01:24;;;;;;;18.48;7.18;;;;;;;17.33;100.00;101372.56;5095250;28;20027;-45
2022/08/03 05:03:50;;;;;;;18.75;7.45;;;;;;;17.36;100.00;101370.00;5094445;28;20026;-46
2022/08/03 05:06:15;;;;;;;16.38;6.70;;;;;;;17.38;100.00;101373.50;5094977;28;20024;-46
2022/08/03 05:08:41;;;;;;;16.63;6.68;;;;;;;17.39;100.00;101371.75;5094964;28;20035;-46
2022/08/03 05:11:06;;;;;;;17.52;6.70;;;;;;;17.48;100.00;101373.56;5094047;28;20379;-47
2022/08/03 05:13:31;;;;;;;16.60;7.20;;;;;;;17.52;100.00;101373.63;5094802;28;20024;-46
2022/08/03 05:15:56;;;;;;;18.27;6.35;;;;;;;17.56;100.00;101378.00;5094064;28;20111;-48
2022/08/03 05:18:22;;;;;;;18.85;6.38;;;;;;;17.60;100.00;101378.91;5094644;28;20024;-48
2022/08/03 05:20:47;;;;;;;22.35;7.35;;;;;;;17.66;100.00;101381.56;5094779;28;20024;-46
2022/08/03 05:23:13;;;;;;;18.25;6.63;;;;;;;17.72;100.00;101386.81;5094065;28;20109;-46
2022/08/03 05:25:38;;;;;;;18.90;6.90;;;;;;;17.76;100.00;101385.97;5094523;28;20039;-46
2022/08/03 05:28:03;;;;;;;15.30;6.50;;;;;;;17.83;99.92;101389.53;5094562;28;20028;-46
2022/08/03 05:30:29;;;;;;;15.02;6.78;;;;;;;17.89;99.27;101392.16;5093690;28;20047;-46
2022/08/03 05:32:54;;;;;;;21.58;6.88;;;;;;;17.96;98.78;101387.94;5094795;28;20028;-50
2022/08/03 05:35:20;;;;;;;15.57;6.53;;;;;;;18.04;98.43;101391.47;5094742;28;20031;-51
2022/08/03 05:37:45;;;;;;;19.17;6.35;;;;;;;18.10;98.26;101385.41;5093615;28;20020;-49
2022/08/03 05:40:11;;;;;;;17.67;6.47;;;;;;;18.17;97.75;101395.03;5094169;28;20035;-47
2022/08/03 05:42:36;;;;;;;16.08;5.97;;;;;;;18.24;97.10;101390.72;5093722;28;20517;-47
2022/08/03 05:45:14;;;;;;;21.83;5.85;;;;;;;18.31;96.66;101402.97;5093406;28;20098;-45
2022/08/03 05:47:43;;;;;;;;;;;;;;;18.34;97.14;101402.09;5094823;28;20064;-46
2022/08/03 05:50:09;;;;;;;17.80;5.88;;;;;;;18.47;95.89;101403.91;5094198;28;19916;-51
2022/08/03 05:52:34;;;;;;;20.40;5.90;;;;;;;18.54;94.70;101404.81;5093349;28;20020;-52
2022/08/03 05:55:00;;;;;;;13.55;5.22;;;;;;;18.63;94.50;101397.06;5093907;28;20020;-46
2022/08/03 05:57:25;;;;;;;18.35;5.20;;;;;;;18.68;93.10;101405.78;5093742;28;20111;-50
2022/08/03 05:59:50;;;;;;;17.17;4.38;;;;;;;18.76;92.46;101404.06;5093289;28;20039;-48
2022/08/03 06:02:16;;;;;;;14.82;4.40;;;;;;;18.83;91.96;101396.28;5093928;28;20447;-50
2022/08/03 06:04:41;;;;;;;20.13;4.20;;;;;;;18.91;91.53;101397.19;5093828;28;20050;-50
2022/08/03 06:07:06;;;;;;;16.40;4.45;;;;;;;19.00;91.45;101397.22;5092972;28;20024;-51
2022/08/03 06:09:32;;;;;;;15.85;4.55;;;;;;;19.06;90.26;101394.63;5093665;28;20032;-45
2022/08/03 06:11:57;;;;;;;15.30;4.65;;;;;;;19.14;90.20;101399.88;5093692;28;20024;-51
2022/08/03 06:14:22;;;;;;;20.13;4.70;;;;;;;19.21;90.07;101400.78;5092924;28;20024;-51
2022/08/03 06:16:47;;;;;;;17.02;4.63;;;;;;;19.24;89.08;101406.88;5093660;28;20032;-45
2022/08/03 06:19:13;;;;;;;14.93;4.40;;;;;;;19.30;88.50;101400.81;5092607;28;20028;-51
2022/08/03 06:21:38;;;;;;;17.80;4.68;;;;;;;19.38;87.95;101396.47;5093441;28;20060;-51
2022/08/03 06:24:03;;;;;;;16.23;4.63;;;;;;;19.41;88.31;101399.06;5093424;28;20107;-50
2022/08/03 06:26:29;;;;;;;19.75;4.88;;;;;;;19.47;88.31;101399.94;5092637;28;20032;-51
2022/08/03 06:28:54;;;;;;;21.23;5.15;;;;;;;19.61;87.99;101403.44;5093219;28;20030;-51
2022/08/03 06:31:22;;;;;;;16.42;4.38;;;;;;;19.65;87.82;101397.38;5093679;28;20061;-51
2022/08/03 06:33:47;;;;;;;19.00;4.82;;;;;;;19.73;87.28;101403.47;5092594;28;20077;-51
2022/08/03 06:36:13;;;;;;;21.02;4.60;;;;;;;19.80;86.57;101401.72;5093513;28;20027;-50
2022/08/03 06:38:38;;;;;;;19.77;4.20;;;;;;;19.90;85.65;101400.03;5093112;28;20036;-50
2022/08/03 06:41:03;;;;;;;16.50;4.47;;;;;;;19.98;85.61;101411.34;5092494;28;20028;-48
2022/08/03 06:43:29;;;;;;;17.02;4.40;;;;;;;20.04;85.09;101413.09;5092916;28;20057;-51
2022/08/03 06:45:54;;;;;;;19.15;4.70;;;;;;;20.13;84.65;101414.81;5093310;28;20391;-46
2022/08/03 06:48:19;;;;;;;14.43;4.32;;;;;;;20.19;84.22;101409.59;5092477;28;20055;-51
2022/08/03 06:50:44;;;;;;;21.23;4.78;;;;;;;20.25;83.38;101414.81;5093000;28;20020;-49
2022/08/03 06:53:10;;;;;;;13.40;4.30;;;;;;;20.30;82.91;101413.06;5092418;28;20016;-50
2022/08/03 06:55:35;;;;;;;13.23;3.70;;;;;;;20.44;82.72;101409.53;5092046;28;20024;-50
2022/08/03 06:58:00;;;;;;;19.30;4.50;;;;;;;20.62;82.44;101417.34;5093126;28;20024;-45
2022/08/03 07:00:27;;;;;;;14.82;4.50;;;;;;;20.63;81.11;101415.59;5093204;28;20062;-47
2022/08/03 07:02:52;;;;;;;17.20;4.38;;;;;;;20.71;81.61;101412.13;5092369;28;20107;-49
2022/08/03 07:05:18;;;;;;;15.43;4.43;;;;;;;20.81;80.05;101414.69;5093132;28;20099;-46
2022/08/03 07:07:43;;;;;;;18.33;5.10;;;;;;;20.94;79.55;101411.16;5092849;28;20064;-45
2022/08/03 07:10:10;;;;;;;16.85;4.00;;;;;;;20.94;79.46;101420.75;5092186;28;20433;-44
2022/08/03 07:12:40;;;;;;;17.67;4.28;;;;;;;21.01;78.80;101423.34;5092720;28;20114;-44
2022/08/03 07:15:06;;;;;;;19.77;4.93;;;;;;;21.17;80.09;101421.50;5092921;28;20020;-45
2022/08/03 07:17:33;;;;;;;20.88;4.45;;;;;;;21.20;77.40;101428.47;5091976;28;20031;-46
2022/08/03 07:20:00;;;;;;;20.98;4.30;;;;;;;21.27;77.54;101430.19;5092615;28;20028;-49
2022/08/03 07:22:25;;;;;;;19.27;4.43;;;;;;;21.29;78.00;101428.47;5091905;28;20027;-49
2022/08/03 07:24:51;;;;;;;22.92;3.63;;;;;;;21.38;76.20;101433.66;5092616;28;20012;-50
2022/08/03 07:27:16;;;;;;;20.15;3.80;;;;;;;21.43;76.09;101435.34;5092949;28;20062;-45
2022/08/03 07:29:42;;;;;;;18.92;4.00;;;;;;;21.51;75.81;101433.53;5092033;28;20039;-51
2022/08/03 07:32:07;;;;;;;16.02;3.55;;;;;;;21.67;75.00;101434.38;5092512;28;20031;-46
2022/08/03 07:34:32;;;;;;;18.10;3.80;;;;;;;21.70;75.29;101440.47;5092516;28;20024;-46
2022/08/03 07:36:58;;;;;;;14.60;3.40;;;;;;;21.81;74.18;101434.28;5091823;28;20058;-49
2022/08/03 07:39:23;;;;;;;24.83;4.85;;;;;;;21.95;73.36;101436.75;5092281;28;20024;-45
2022/08/03 07:41:50;;;;;;;15.95;3.15;;;;;;;22.01;73.26;101434.09;5092535;28;20483;-46
2022/08/03 07:44:16;;;;;;;16.98;3.38;;;;;;;22.03;72.67;101438.44;5091762;28;20044;-45
2022/08/03 07:46:41;;;;;;;16.77;3.30;;;;;;;22.10;72.13;101433.13;5092431;28;20047;-50
2022/08/03 07:49:06;;;;;;;18.30;3.35;;;;;;;22.15;71.72;101426.09;5092288;28;20035;-47
2022/08/03 07:51:32;;;;;;;18.85;3.80;;;;;;;22.23;71.64;101433.91;5091600;28;20028;-49
2022/08/03 07:53:57;;;;;;;18.77;3.58;;;;;;;22.45;71.22;101435.47;5092395;28;20024;-51
2022/08/03 07:56:26;;;;;;;16.73;3.42;;;;;;;22.51;70.88;101434.53;5092483;28;20032;-51
2022/08/03 07:58:53;;;;;;;16.25;3.25;;;;;;;22.61;70.67;101428.28;5091698;28;20028;-49
2022/08/03 08:01:18;;;;;;;18.83;3.60;;;;;;;22.61;69.36;101427.41;5092356;28;20371;-50
2022/08/03 08:03:48;;;;;;;18.45;3.50;;;;;;;22.61;69.28;101430.03;5092866;28;20466;-50
2022/08/03 08:06:13;;;;;;;23.05;3.63;;;;;;;22.77;69.13;101436.84;5095419;28;20081;-48
2022/08/03 08:08:39;;;;;;;15.60;3.28;;;;;;;22.79;68.67;101428.97;5095874;28;20016;-51
2022/08/03 08:11:04;;;;;;;15.07;3.10;;;;;;;22.85;68.60;101420.97;5096185;28;20028;-47
2022/08/03 08:13:30;;;;;;;18.70;3.42;;;;;;;23.03;67.71;101433.03;5095402;28;20428;-49
2022/08/03 08:15:56;;;;;;;15.13;2.92;;;;;;;22.98;66.88;101419.94;5096002;28;20406;-51
2022/08/03 08:18:22;;;;;;;16.63;3.40;;;;;;;23.07;67.36;101425.97;5095934;28;20083;-49
2022/08/03 08:20:48;;;;;;;19.08;3.40;;;;;;;23.25;67.46;101428.38;5095055;28;20024;-49
2022/08/03 08:23:14;;;;;;;11.32;2.85;;;;;;;23.42;66.55;101430.78;5095732;28;20024;-50
2022/08/03 08:25:39;;;;;;;20.35;3.63;;;;;;;23.50;65.76;101434.16;5095567;28;20035;-46
2022/08/03 08:28:05;;;;;;;21.25;3.85;;;;;;;23.54;64.53;101427.09;5095442;28;20383;-50
2022/08/03 08:30:31;;;;;;;14.55;2.92;;;;;;;23.63;64.29;101424.31;5095842;28;20054;-51
2022/08/03 08:32:57;;;;;;;20.65;3.80;;;;;;;23.62;64.53;101421.72;5094878;28;20484;-47
2022/08/03 08:35:23;;;;;;;19.60;3.65;;;;;;;23.71;64.51;101420.69;5095597;28;20518;-50
2022/08/03 08:37:48;;;;;;;17.60;3.30;;;;;;;23.83;64.03;101426.63;5095365;28;20056;-47
2022/08/03 08:40:14;;;;;;;15.85;2.78;;;;;;;23.93;63.10;101421.25;5095047;28;20020;-50
2022/08/03 08:42:40;;;;;;;13.88;3.17;;;;;;;23.88;62.24;101421.28;5095081;28;20269;-48
2022/08/03 08:45:08;;;;;;;16.02;3.00;;;;;;;24.07;63.69;101423.63;5095394;28;20525;-49
2022/08/03 08:47:36;;;;;;;19.25;3.35;;;;;;;24.28;62.31;101423.22;5094653;28;20020;-47
2022/08/03 08:50:02;;;;;;;25.05;3.78;;;;;;;24.37;61.99;101422.19;5095166;28;20024;-50
2022/08/03 08:52:28;;;;;;;17.63;2.97;;;;;;;24.49;61.30;101421.09;5095192;28;20034;-47
2022/08/03 08:54:57;;;;;;;18.87;3.77;;;;;;;24.51;60.68;101423.72;5094608;28;20103;-49
2022/08/03 08:57:27;;;;;;;16.33;2.85;;;;;;;24.48;60.81;101414.09;5095404;28;20339;-48
2022/08/03 08:59:55;;;;;;;12.30;3.05;;;;;;;24.67;60.31;101419.03;5095208;28;20031;-50
2022/08/03 09:02:21;;;;;;;19.77;3.33;;;;;;;24.85;60.66;101418.63;5094478;28;20078;-49
2022/08/03 09:04:47;;;;;;;15.60;3.20;;;;;;;25.03;59.70;101421.78;5094843;28;20027;-52
2022/08/03 09:07:13;;;;;;;15.65;3.13;;;;;;;25.14;58.50;101419.81;5095102;28;20034;-48
2022/08/03 09:09:38;;;;;;;15.27;2.85;;;;;;;25.28;57.07;101423.00;5094228;28;20111;-50
2022/08/03 09:12:03;;;;;;;15.15;2.78;;;;;;;25.29;55.47;101418.56;5094864;28;20528;-48
2022/08/03 09:14:29;;;;;;;17.42;2.67;;;;;;;25.35;55.53;101418.47;5094871;28;20081;-46
2022/08/03 09:16:59;;;;;;;15.32;3.65;;;;;;;25.54;55.66;101423.28;5093289;28;20059;-50
2022/08/03 09:19:24;;;;;;;17.15;2.63;;;;;;;25.60;54.83;101428.44;5094419;28;20034;-52
2022/08/03 09:22:06;;;;;;;18.02;2.90;;;;;;;25.62;55.16;101421.34;5094872;28;20417;-51
2022/08/03 09:24:32;;;;;;;14.63;2.90;;;;;;;25.70;55.54;101422.03;5094447;28;20532;-51
2022/08/03 09:26:57;;;;;;;14.20;2.80;;;;;;;25.92;54.97;101430.28;5094660;28;20020;-51
2022/08/03 09:29:23;;;;;;;17.02;3.13;;;;;;;26.08;55.22;101435.19;5093956;28;20075;-51
2022/08/03 09:31:59;;;;;;;17.10;2.95;;;;;;;26.18;54.59;101431.41;5094499;28;20020;-46
2022/08/03 09:34:27;;;;;;;18.40;2.67;;;;;;;26.27;53.81;101430.28;5094618;28;20028;-51
2022/08/03 09:36:53;;;;;;;15.80;3.30;;;;;;;26.24;52.62;101420.69;5093824;28;20101;-51
2022/08/03 09:39:22;;;;;;;15.75;2.88;;;;;;;26.37;52.79;101433.56;5094459;28;20107;-51
2022/08/03 09:42:07;;;;;;;11.98;3.10;;;;;;;26.43;52.49;101420.16;5094266;28;20051;-50
2022/08/03 09:44:37;;;;;;;22.38;3.85;;;;;;;26.40;51.90;101421.16;5092739;28;20491;-51
2022/08/03 09:47:04;;;;;;;15.15;2.92;;;;;;;26.63;52.14;101422.25;5094328;28;20035;-49
2022/08/03 09:49:31;;;;;;;22.67;3.65;;;;;;;26.77;51.46;101429.84;5094261;28;20221;-51
2022/08/03 09:52:00;;;;;;;27.10;3.65;;;;;;;26.91;51.28;101426.78;5093315;28;20028;-47
2022/08/03 09:54:27;;;;;;;23.00;3.63;;;;;;;27.17;51.81;101422.50;5093815;28;20032;-48
2022/08/03 09:56:52;;;;;;;21.75;3.50;;;;;;;27.25;49.74;101421.31;5094078;28;20070;-51
2022/08/03 09:59:29;;;;;;;23.00;3.63;;;;;;;27.54;50.89;101423.97;5093403;28;20454;-47
2022/08/03 10:01:55;;;;;;;16.35;3.28;;;;;;;27.75;49.00;101422.44;5094078;28;20073;-50
2022/08/03 10:04:21;;;;;;;26.63;3.47;;;;;;;28.03;47.99;101419.72;5093233;28;20020;-51
2022/08/03 10:07:06;;;;;;;23.83;3.35;;;;;;;28.18;47.88;101420.09;5093829;28;20020;-50
2022/08/03 10:09:32;;;;;;;19.15;3.30;;;;;;;28.64;46.61;101426.41;5093646;28;20098;-49
2022/08/03 10:12:06;;;;;;;20.83;3.45;;;;;;;28.66;45.31;101423.72;5093230;28;20108;-51
2022/08/03 10:14:31;;;;;;;21.02;3.35;;;;;;;28.68;45.50;101424.53;5093750;28;20026;-48
2022/08/03 10:16:57;;;;;;;19.23;3.60;;;;;;;29.07;44.79;101424.78;5093709;28;20095;-51
2022/08/03 10:19:24;;;;;;;19.17;3.93;;;;;;;29.70;43.19;101415.25;5093048;28;20032;-51
2022/08/03 10:21:52;;;;;;;;;;;;;;;30.03;45.16;101426.25;5093975;28;20278;-50
2022/08/03 10:24:24;;;;;;;21.70;3.08;;;;;;;30.90;41.66;101424.19;5093597;28;19916;-50
2022/08/03 10:26:50;;;;;;;15.98;3.15;;;;;;;31.44;39.14;101411.88;5092897;28;20130;-50
2022/08/03 10:29:23;;;;;;;16.63;2.70;;;;;;;31.74;38.62;101416.63;5093754;28;20088;-52
2022/08/03 10:31:52;;;;;;;19.00;3.42;;;;;;;31.68;37.92;101420.47;5093417;28;20024;-50
2022/08/03 10:34:22;;;;;;;23.60;3.10;;;;;;;32.15;37.65;101410.94;5092700;28;20024;-52
2022/08/03 10:36:50;;;;;;;17.27;3.20;;;;;;;32.55;36.21;101407.09;5093848;28;20105;-49
2022/08/03 10:39:20;;;;;;;19.55;3.20;;;;;;;33.08;34.73;101397.97;5093357;28;20128;-50
2022/08/03 10:41:48;;;;;;;20.40;3.65;;;;;;;33.46;33.90;101410.94;5093442;28;20023;-49
2022/08/03 10:44:18;;;;;;;24.33;3.20;;;;;;;33.95;34.19;101409.00;5093076;28;20387;-51
2022/08/03 10:46:45;;;;;;;17.92;3.17;;;;;;;33.71;33.35;101401.44;5092493;28;20619;-47
2022/08/03 10:49:15;;;;;;;23.85;3.80;;;;;;;33.99;32.92;101391.81;5093095;28;20024;-52
2022/08/03 10:51:43;;;;;;;19.85;3.25;;;;;;;34.29;32.71;101398.88;5093318;28;20061;-48
2022/08/03 10:57:33;;;;;;;31.00;3.70;;;;;;;34.74;33.10;101391.59;5092539;28;20039;-49
2022/08/03 10:57:52;;;;;;;18.80;3.25;;;;;;;34.85;32.17;101390.09;5092855;28;20413;-52
2022/08/03 11:00:20;;;;;;;17.13;3.25;;;;;;;34.47;30.40;101383.53;5093285;28;20056;-52
2022/08/03 11:03:18;;;;;;;18.45;3.05;;;;;;;34.86;31.50;101381.09;5092165;28;20451;-52
2022/08/03 11:05:47;;;;;;;18.70;3.20;;;;;;;34.81;30.78;101385.88;5048369;28;20047;-48
2022/08/03 11:08:33;;;;;;;17.27;3.00;;;;;;;34.85;32.69;101376.69;5092425;28;20095;-48
2022/08/03 11:11:19;;;;;;;18.92;3.60;;;;;;;34.92;30.96;101370.84;5093058;28;20020;-52
2022/08/03 11:14:06;;;;;;;15.70;2.28;;;;;;;35.24;29.44;101367.84;5078482;28;20038;-51
2022/08/03 11:16:37;;;;;;;16.00;2.70;;;;;;;35.13;29.82;101369.53;5091993;28;20077;-49
2022/08/03 11:19:05;;;;;;;11.90;2.40;;;;;;;35.34;29.48;101373.47;5092839;28;20034;-52
2022/08/03 11:21:52;;;;;;;13.45;2.88;;;;;;;36.13;30.41;101372.63;5092225;28;20030;-49
2022/08/03 11:24:35;;;;;;;14.45;2.85;;;;;;;36.47;28.78;101368.41;5092782;28;20082;-49